Time;durP1;ratioP1;P1;durP2;ratioP2;P2;SDS_P1;SDS_P2;PMS_P1;PMS_P2;Temp;Humidity;BMP_temperature;BMP_pressure;BME280_temperature;BME280_humidity;BME280_pressure;Samples;Min_cycle;Max_cycle;Signal;HPM_P1;HPM_P2
2022/07/25 00:01:42;;;;;;;;;;;;;;;;;;5026913;28;19921;-60
2022/07/25 00:04:08;;;;;;;;;;;;;;;;;;5027705;28;19952;-60
2022/07/25 00:06:34;;;;;;;;;;;;;;;;;;5026768;28;19923;-60
2022/07/25 00:09:00;;;;;;;;;;;;;;;;;;5028276;28;19925;-60
2022/07/25 00:11:26;;;;;;;;;;;;;;;;;;5031106;28;19989;-60
2022/07/25 00:13:51;;;;;;;;;;;;;;;;;;5032485;28;19920;-60
2022/07/25 00:16:17;;;;;;;;;;;;;;;;;;5035095;28;19917;-61
2022/07/25 00:18:43;;;;;;;;;;;;;;;;;;5034102;28;19916;-60
2022/07/25 00:21:09;;;;;;;;;;;;;;;;;;5030676;28;20374;-60
2022/07/25 00:23:35;;;;;;;;;;;;;;;;;;5027033;28;19917;-60
2022/07/25 00:26:01;;;;;;;;;;;;;;;;;;5013124;28;19992;-60
2022/07/25 00:28:27;;;;;;;;;;;;;;;;;;5025835;28;20374;-61
2022/07/25 00:30:52;;;;;;;;;;;;;;;;;;5024825;28;20049;-61
2022/07/25 00:33:18;;;;;;;;;;;;;;;;;;5029903;28;19920;-61
2022/07/25 00:35:44;;;;;;;;;;;;;;;;;;5031393;28;19966;-60
2022/07/25 00:38:10;;;;;;;;;;;;;;;;;;5037508;28;19921;-60
2022/07/25 00:40:36;;;;;;;;;;;;;;;;;;5027675;28;19916;-61
2022/07/25 00:43:02;;;;;;;;;;;;;;;;;;5031383;28;19975;-60
2022/07/25 00:45:28;;;;;;;;;;;;;;;;;;5031449;28;20401;-60
2022/07/25 00:47:53;;;;;;;;;;;;;;;;;;5025179;28;20442;-60
2022/07/25 00:50:19;;;;;;;;;;;;;;;;;;5022070;28;20012;-60
2022/07/25 00:52:45;;;;;;;;;;;;;;;;;;5024991;28;19920;-60
2022/07/25 00:55:11;;;;;;;;;;;;;;;;;;5032469;28;19920;-61
2022/07/25 00:57:37;;;;;;;;;;;;;;;;;;5028815;28;20382;-61
2022/07/25 01:00:03;;;;;;;;;;;;;;;;;;5028655;28;20367;-61
2022/07/25 01:02:29;;;;;;;;;;;;;;;;;;5030166;28;19928;-61
2022/07/25 01:04:55;;;;;;;;;;;;;;;;;;5030752;28;19939;-61
2022/07/25 01:07:21;;;;;;;;;;;;;;;;;;5031016;28;20020;-60
2022/07/25 01:09:47;;;;;;;;;;;;;;;;;;5031113;28;20016;-61
2022/07/25 01:12:13;;;;;;;;;;;;;;;;;;5028641;28;19921;-60
2022/07/25 01:14:39;;;;;;;;;;;;;;;;;;5023813;28;19976;-61
2022/07/25 01:17:05;;;;;;;;;;;;;;;;;;5031269;28;19927;-61
2022/07/25 01:19:31;;;;;;;;;;;;;;;;;;5029717;28;19916;-60
2022/07/25 01:21:56;;;;;;;;;;;;;;;;;;5030259;28;19936;-61
2022/07/25 01:24:23;;;;;;;;;;;;;;;;;;5029512;28;20575;-60
2022/07/25 01:26:48;;;;;;;;;;;;;;;;;;5028794;28;19928;-60
2022/07/25 01:29:14;;;;;;;;;;;;;;;;;;5030644;28;19928;-61
2022/07/25 01:31:40;;;;;;;;;;;;;;;;;;5030669;28;20000;-61
2022/07/25 01:34:06;;;;;;;;;;;;;;;;;;5030048;28;19921;-61
2022/07/25 01:36:32;;;;;;;;;;;;;;;;;;5036221;28;19966;-59
2022/07/25 01:38:58;;;;;;;;;;;;;;;;;;5035345;28;19921;-61
2022/07/25 01:41:24;;;;;;;;;;;;;;;;;;5030087;28;19917;-60
2022/07/25 01:43:49;;;;;;;;;;;;;;;;;;5033251;28;20297;-60
2022/07/25 01:46:15;;;;;;;;;;;;;;;;;;5033533;28;19925;-60
2022/07/25 01:48:41;;;;;;;;;;;;;;;;;;5034124;28;20365;-60
2022/07/25 01:51:09;;;;;;;;;;;;;;;;;;5032104;28;19920;-61
2022/07/25 01:53:35;;;;;;;;;;;;;;;;;;5030434;28;19928;-60
2022/07/25 01:56:01;;;;;;;;;;;;;;;;;;5031877;28;20290;-60
2022/07/25 01:58:26;;;;;;;;;;;;;;;;;;5029627;28;20031;-60
2022/07/25 02:00:52;;;;;;;;;;;;;;;;;;5031543;28;19928;-60
2022/07/25 02:03:30;;;;;;;;;;;;;;;;;;5030716;28;19913;-61
2022/07/25 02:05:56;;;;;;;;;;;;;;;;;;5029107;28;19956;-60
2022/07/25 02:08:22;;;;;;;;;;;;;;;;;;5030159;28;20373;-60
2022/07/25 02:10:48;;;;;;;;;;;;;;;;;;5028973;28;19920;-61
2022/07/25 02:13:14;;;;;;;;;;;;;;;;;;5030385;28;19920;-60
2022/07/25 02:15:39;;;;;;;;;;;;;;;;;;5014991;28;20488;-60
2022/07/25 02:18:05;;;;;;;;;;;;;;;;;;5015610;28;19928;-61
2022/07/25 02:20:31;;;;;;;;;;;;;;;;;;5014779;28;19921;-60
2022/07/25 02:22:57;;;;;;;;;;;;;;;;;;5015856;28;19928;-60
2022/07/25 02:25:23;;;;;;;;;;;;;;;;;;5012468;28;20267;-60
2022/07/25 02:27:49;;;;;;;;;;;;;;;;;;5012563;28;19924;-59
2022/07/25 02:30:15;;;;;;;;;;;;;;;;;;5014410;28;19925;-60
2022/07/25 02:32:40;;;;;;;;;;;;;;;;;;5012278;28;19924;-60
2022/07/25 02:35:06;;;;;;;;;;;;;;;;;;5017661;28;20314;-60
2022/07/25 02:37:32;;;;;;;;;;;;;;;;;;5013393;28;19977;-61
2022/07/25 02:39:58;;;;;;;;;;;;;;;;;;5012274;28;20287;-60
2022/07/25 02:42:24;;;;;;;;;;;;;;;;;;5012583;28;19920;-60
2022/07/25 02:44:50;;;;;;;;;;;;;;;;;;5016680;28;19921;-60
2022/07/25 02:47:16;;;;;;;;;;;;;;;;;;5011968;28;19921;-60
2022/07/25 02:49:41;;;;;;;;;;;;;;;;;;5012434;28;19940;-60
2022/07/25 02:52:08;;;;;;;;;;;;;;;;;;5011506;28;20020;-60
2022/07/25 02:54:34;;;;;;;;;;;;;;;;;;5017088;28;19970;-60
2022/07/25 02:56:59;;;;;;;;;;;;;;;;;;5017558;28;19917;-60
2022/07/25 02:59:25;;;;;;;;;;;;;;;;;;5018363;28;19921;-60
2022/07/25 03:01:51;;;;;;;;;;;;;;;;;;5009932;28;19920;-60
2022/07/25 03:04:17;;;;;;;;;;;;;;;;;;5017999;28;19921;-60
2022/07/25 03:06:43;;;;;;;;;;;;;;;;;;5015280;28;19919;-60
2022/07/25 03:09:09;;;;;;;;;;;;;;;;;;5015411;28;19921;-60
2022/07/25 03:11:35;;;;;;;;;;;;;;;;;;5015358;28;19921;-60
2022/07/25 03:14:01;;;;;;;;;;;;;;;;;;5011163;28;19924;-60
2022/07/25 03:16:26;;;;;;;;;;;;;;;;;;5030287;28;19932;-60
2022/07/25 03:18:52;;;;;;;;;;;;;;;;;;5034617;28;20298;-60
2022/07/25 03:21:18;;;;;;;;;;;;;;;;;;5033884;28;19917;-60
2022/07/25 03:23:44;;;;;;;;;;;;;;;;;;5030601;28;19928;-60
2022/07/25 03:26:10;;;;;;;;;;;;;;;;;;5031522;28;19916;-60
2022/07/25 03:28:36;;;;;;;;;;;;;;;;;;5035640;28;20793;-60
2022/07/25 03:31:02;;;;;;;;;;;;;;;;;;5028113;28;19924;-60
2022/07/25 03:33:27;;;;;;;;;;;;;;;;;;5030130;28;19921;-60
2022/07/25 03:35:55;;;;;;;;;;;;;;;;;;5031155;28;20490;-60
2022/07/25 03:38:21;;;;;;;;;;;;;;;;;;5034209;28;19917;-60
2022/07/25 03:40:46;;;;;;;;;;;;;;;;;;5034533;28;20416;-60
2022/07/25 03:43:12;;;;;;;;;;;;;;;;;;5030858;28;19921;-60
2022/07/25 03:45:38;;;;;;;;;;;;;;;;;;5030388;28;19962;-60
2022/07/25 03:48:04;;;;;;;;;;;;;;;;;;5029638;28;19916;-60
2022/07/25 03:50:30;;;;;;;;;;;;;;;;;;5030792;28;19917;-60
2022/07/25 03:52:56;;;;;;;;;;;;;;;;;;5029243;28;19917;-60
2022/07/25 03:55:22;;;;;;;;;;;;;;;;;;5032451;28;19920;-60
2022/07/25 03:57:48;;;;;;;;;;;;;;;;;;5034195;28;19960;-61
2022/07/25 04:00:13;;;;;;;;;;;;;;;;;;5028403;28;19927;-60
2022/07/25 04:02:39;;;;;;;;;;;;;;;;;;5034669;28;19923;-60
2022/07/25 04:05:05;;;;;;;;;;;;;;;;;;5038152;28;20381;-60
2022/07/25 04:07:31;;;;;;;;;;;;;;;;;;5031486;28;19927;-60
2022/07/25 04:09:57;;;;;;;;;;;;;;;;;;5030956;28;20484;-60
2022/07/25 04:12:23;;;;;;;;;;;;;;;;;;5030786;28;19948;-60
2022/07/25 04:14:49;;;;;;;;;;;;;;;;;;5031634;28;19956;-60
2022/07/25 04:17:15;;;;;;;;;;;;;;;;;;5032856;28;19946;-60
2022/07/25 04:19:41;;;;;;;;;;;;;;;;;;5034315;28;20337;-60
2022/07/25 04:22:07;;;;;;;;;;;;;;;;;;5028809;28;19920;-60
2022/07/25 04:24:33;;;;;;;;;;;;;;;;;;5033691;28;19909;-60
2022/07/25 04:26:59;;;;;;;;;;;;;;;;;;5029987;28;20367;-61
2022/07/25 04:29:24;;;;;;;;;;;;;;;;;;5032593;28;19923;-59
2022/07/25 04:31:50;;;;;;;;;;;;;;;;;;5029671;28;19921;-60
2022/07/25 04:34:16;;;;;;;;;;;;;;;;;;5029987;28;20487;-60
2022/07/25 04:36:42;;;;;;;;;;;;;;;;;;5031303;28;19943;-60
2022/07/25 04:39:08;;;;;;;;;;;;;;;;;;5027594;28;19916;-60
2022/07/25 04:41:34;;;;;;;;;;;;;;;;;;5032975;28;20290;-60
2022/07/25 04:44:00;;;;;;;;;;;;;;;;;;5032774;28;19920;-61
2022/07/25 04:46:25;;;;;;;;;;;;;;;;;;5038000;28;19936;-60
2022/07/25 04:48:51;;;;;;;;;;;;;;;;;;5031535;28;19920;-61
2022/07/25 04:51:17;;;;;;;;;;;;;;;;;;5029035;28;20036;-60
2022/07/25 04:53:43;;;;;;;;;;;;;;;;;;5029076;28;20017;-60
2022/07/25 04:56:09;;;;;;;;;;;;;;;;;;5031405;28;19921;-60
2022/07/25 04:58:35;;;;;;;;;;;;;;;;;;5029020;28;20583;-60
2022/07/25 05:01:01;;;;;;;;;;;;;;;;;;5033853;28;19973;-60
2022/07/25 05:03:27;;;;;;;;;;;;;;;;;;5029256;28;19913;-60
2022/07/25 05:05:52;;;;;;;;;;;;;;;;;;5031099;28;19932;-61
2022/07/25 05:08:18;;;;;;;;;;;;;;;;;;5032106;28;21277;-60
2022/07/25 05:10:44;;;;;;;;;;;;;;;;;;5032646;28;20394;-60
2022/07/25 05:13:10;;;;;;;;;;;;;;;;;;5026040;28;19920;-60
2022/07/25 05:15:36;;;;;;;;;;;;;;;;;;5027790;28;19928;-60
2022/07/25 05:18:02;;;;;;;;;;;;;;;;;;5034054;28;19956;-60
2022/07/25 05:20:28;;;;;;;;;;;;;;;;;;5030445;28;19936;-60
2022/07/25 05:22:54;;;;;;;;;;;;;;;;;;5029748;28;19917;-60
2022/07/25 05:25:19;;;;;;;;;;;;;;;;;;5031162;28;19927;-60
2022/07/25 05:27:45;;;;;;;;;;;;;;;;;;5034054;28;20011;-60
2022/07/25 05:30:11;;;;;;;;;;;;;;;;;;5030226;28;20522;-60
2022/07/25 05:32:37;;;;;;;;;;;;;;;;;;5036185;28;19972;-60
2022/07/25 05:35:03;;;;;;;;;;;;;;;;;;5050534;28;20320;-60
2022/07/25 05:37:29;;;;;;;;;;;;;;;;;;5038821;28;19920;-60
2022/07/25 05:39:55;;;;;;;;;;;;;;;;;;5030553;28;19913;-60
2022/07/25 05:42:20;;;;;;;;;;;;;;;;;;5028207;28;19921;-61
2022/07/25 05:44:46;;;;;;;;;;;;;;;;;;5033071;28;19916;-60
2022/07/25 05:47:12;;;;;;;;;;;;;;;;;;5031792;28;19967;-60
2022/07/25 05:49:38;;;;;;;;;;;;;;;;;;5030261;28;20370;-59
2022/07/25 05:52:04;;;;;;;;;;;;;;;;;;5032263;28;19928;-60
2022/07/25 05:54:30;;;;;;;;;;;;;;;;;;5028366;28;20435;-59
2022/07/25 05:56:56;;;;;;;;;;;;;;;;;;5022582;28;19928;-59
2022/07/25 05:59:22;;;;;;;;;;;;;;;;;;5031625;28;19920;-60
2022/07/25 06:01:47;;;;;;;;;;;;;;;;;;5033841;28;19921;-59
2022/07/25 06:04:13;;;;;;;;;;;;;;;;;;5034772;28;19924;-60
2022/07/25 06:06:39;;;;;;;;;;;;;;;;;;5029219;28;20314;-62
2022/07/25 06:09:05;;;;;;;;;;;;;;;;;;5033777;28;19974;-61
2022/07/25 06:11:31;;;;;;;;;;;;;;;;;;5027302;28;19928;-59
2022/07/25 06:13:57;;;;;;;;;;;;;;;;;;5032384;28;19943;-61
2022/07/25 06:16:23;;;;;;;;;;;;;;;;;;5030364;28;20039;-61
2022/07/25 06:18:48;;;;;;;;;;;;;;;;;;5032717;28;19939;-62
2022/07/25 06:21:14;;;;;;;;;;;;;;;;;;5031628;28;19916;-62
2022/07/25 06:23:40;;;;;;;;;;;;;;;;;;5033360;28;19921;-62
2022/07/25 06:26:06;;;;;;;;;;;;;;;;;;5035785;28;19947;-61
2022/07/25 06:28:32;;;;;;;;;;;;;;;;;;5032701;28;20378;-62
2022/07/25 06:30:58;;;;;;;;;;;;;;;;;;5035050;28;19943;-61
2022/07/25 06:33:24;;;;;;;;;;;;;;;;;;5034259;28;19912;-62
2022/07/25 06:35:49;;;;;;;;;;;;;;;;;;5035901;28;19921;-62
2022/07/25 06:38:15;;;;;;;;;;;;;;;;;;5032086;28;20035;-60
2022/07/25 06:40:41;;;;;;;;;;;;;;;;;;5037120;28;19974;-61
2022/07/25 06:43:07;;;;;;;;;;;;;;;;;;5033594;28;20392;-61
2022/07/25 06:45:33;;;;;;;;;;;;;;;;;;5037272;28;19936;-61
2022/07/25 06:47:59;;;;;;;;;;;;;;;;;;5033273;28;19956;-61
2022/07/25 06:50:25;;;;;;;;;;;;;;;;;;5036102;28;20394;-61
2022/07/25 06:52:53;;;;;;;;;;;;;;;;;;5033198;28;20012;-61
2022/07/25 06:55:19;;;;;;;;;;;;;;;;;;5034276;28;20050;-61
2022/07/25 06:57:44;;;;;;;;;;;;;;;;;;5030418;28;20074;-61
2022/07/25 07:00:10;;;;;;;;;;;;;;;;;;5025357;28;19923;-62
2022/07/25 07:02:36;;;;;;;;;;;;;;;;;;5029957;28;20378;-62
2022/07/25 07:05:02;;;;;;;;;;;;;;;;;;5032126;28;19916;-61
2022/07/25 07:07:28;;;;;;;;;;;;;;;;;;5030686;28;19952;-62
2022/07/25 07:09:54;;;;;;;;;;;;;;;;;;5036324;28;19921;-61
2022/07/25 07:12:20;;;;;;;;;;;;;;;;;;5029244;28;19947;-61
2022/07/25 07:14:46;;;;;;;;;;;;;;;;;;5033771;28;19924;-61
2022/07/25 07:17:12;;;;;;;;;;;;;;;;;;5034308;28;20361;-61
2022/07/25 07:19:43;;;;;;;;;;;;;;;;;;5032641;28;19969;-61
2022/07/25 07:22:09;;;;;;;;;;;;;;;;;;5028938;28;19923;-61
2022/07/25 07:24:34;;;;;;;;;;;;;;;;;;5031012;28;19921;-61
2022/07/25 07:27:00;;;;;;;;;;;;;;;;;;5037997;28;20392;-61
2022/07/25 07:29:27;;;;;;;;;;;;;;;;;;5033512;28;19920;-61
2022/07/25 07:31:53;;;;;;;;;;;;;;;;;;5032290;28;19921;-61
2022/07/25 07:34:19;;;;;;;;;;;;;;;;;;5033656;28;19919;-61
2022/07/25 07:36:45;;;;;;;;;;;;;;;;;;5037205;28;19943;-59
2022/07/25 07:39:11;;;;;;;;;;;;;;;;;;5037611;28;19921;-61
2022/07/25 07:41:36;;;;;;;;;;;;;;;;;;5032629;28;20376;-61
2022/07/25 07:44:02;;;;;;;;;;;;;;;;;;5035183;28;20011;-61
2022/07/25 07:46:28;;;;;;;;;;;;;;;;;;5035837;28;19917;-61
2022/07/25 07:48:54;;;;;;;;;;;;;;;;;;5036021;28;20011;-61
2022/07/25 07:51:20;;;;;;;;;;;;;;;;;;5037549;28;19925;-61
2022/07/25 07:56:31;;;;;;;;;;;;;;;;;;5040205;28;19923;-61
2022/07/25 07:58:56;;;;;;;;;;;;;;;;;;5029937;28;19920;-61
2022/07/25 08:01:23;;;;;;;;;;;;;;;;;;5033112;28;20668;-61
2022/07/25 08:03:49;;;;;;;;;;;;;;;;;;5023845;28;20043;-61
2022/07/25 08:06:15;;;;;;;;;;;;;;;;;;5030524;28;19920;-61
2022/07/25 08:08:41;;;;;;;;;;;;;;;;;;5026639;28;19917;-62
2022/07/25 08:11:07;;;;;;;;;;;;;;;;;;5032747;28;19920;-61
2022/07/25 08:13:33;;;;;;;;;;;;;;;;;;5030048;28;20303;-61
2022/07/25 08:15:59;;;;;;;;;;;;;;;;;;5029023;28;20008;-61
2022/07/25 08:18:25;;;;;;;;;;;;;;;;;;5034982;28;19927;-62
2022/07/25 08:20:51;;;;;;;;;;;;;;;;;;5040320;28;19917;-61
2022/07/25 08:23:17;;;;;;;;;;;;;;;;;;5030049;28;19913;-61
2022/07/25 08:25:43;;;;;;;;;;;;;;;;;;5031696;28;19920;-62
2022/07/25 08:28:09;;;;;;;;;;;;;;;;;;5034899;28;19924;-62
2022/07/25 08:30:34;;;;;;;;;;;;;;;;;;5031815;28;20449;-60
2022/07/25 08:33:02;;;;;;;;;;;;;;;;;;5031070;28;19920;-61
2022/07/25 08:35:28;;;;;;;;;;;;;;;;;;5036558;28;19927;-61
2022/07/25 08:37:54;;;;;;;;;;;;;;;;;;5038049;28;19916;-61
2022/07/25 08:40:20;;;;;;;;;;;;;;;;;;5033406;28;20573;-61
2022/07/25 08:42:46;;;;;;;;;;;;;;;;;;5032324;28;19921;-61
2022/07/25 08:45:18;;;;;;;;;;;;;;;;;;5031400;28;19940;-61
2022/07/25 08:47:44;;;;;;;;;;;;;;;;;;5030934;28;20375;-61
2022/07/25 08:50:10;;;;;;;;;;;;;;;;;;5030267;28;19921;-61
2022/07/25 08:52:36;;;;;;;;;;;;;;;;;;5035331;28;20413;-61
2022/07/25 08:55:01;;;;;;;;;;;;;;;;;;5030732;28;20950;-61
2022/07/25 08:57:27;;;;;;;;;;;;;;;;;;5035082;28;19966;-61
2022/07/25 08:59:53;;;;;;;;;;;;;;;;;;5030686;28;20290;-61
2022/07/25 09:02:19;;;;;;;;;;;;;;;;;;5042856;28;19987;-61
2022/07/25 09:04:45;;;;;;;;;;;;;;;;;;5034353;28;19921;-60
2022/07/25 09:07:11;;;;;;;;;;;;;;;;;;5032826;28;19955;-61
2022/07/25 09:09:37;;;;;;;;;;;;;;;;;;5031862;28;20377;-61
2022/07/25 09:12:03;;;;;;;;;;;;;;;;;;5035520;28;19920;-61
2022/07/25 09:14:28;;;;;;;;;;;;;;;;;;5033705;28;19936;-62
2022/07/25 09:16:54;;;;;;;;;;;;;;;;;;5031736;28;19970;-62
2022/07/25 09:19:20;;;;;;;;;;;;;;;;;;5034526;28;20366;-62
2022/07/25 09:21:46;;;;;;;;;;;;;;;;;;5034645;28;19924;-62
2022/07/25 09:24:12;;;;;;;;;;;;;;;;;;5029586;28;19927;-62
2022/07/25 09:26:38;;;;;;;;;;;;;;;;;;5034047;28;19924;-62
2022/07/25 09:29:04;;;;;;;;;;;;;;;;;;5029237;28;19974;-62
2022/07/25 09:31:30;;;;;;;;;;;;;;;;;;5026244;28;19916;-62
2022/07/25 09:33:57;;;;;;;;;;;;;;;;;;5028868;28;20547;-62
2022/07/25 09:36:23;;;;;;;;;;;;;;;;;;5034319;28;19933;-62
2022/07/25 09:38:49;;;;;;;;;;;;;;;;;;5032384;28;19929;-62
2022/07/25 09:41:15;;;;;;;;;;;;;;;;;;5033738;28;20373;-61
2022/07/25 09:43:41;;;;;;;;;;;;;;;;;;5034112;28;19923;-62
2022/07/25 09:46:07;;;;;;;;;;;;;;;;;;5034473;28;20309;-62
2022/07/25 09:48:33;;;;;;;;;;;;;;;;;;5032131;28;19924;-62
2022/07/25 09:50:58;;;;;;;;;;;;;;;;;;5035047;28;19925;-62
2022/07/25 09:53:24;;;;;;;;;;;;;;;;;;5041124;28;20492;-61
2022/07/25 09:55:52;;;;;;;;;;;;;;;;;;5044009;28;19912;-61
2022/07/25 09:58:18;;;;;;;;;;;;;;;;;;5035784;28;19916;-62
2022/07/25 10:00:43;;;;;;;;;;;;;;;;;;5035926;28;19917;-61
2022/07/25 10:03:09;;;;;;;;;;;;;;;;;;5037317;28;19920;-62
2022/07/25 10:05:35;;;;;;;;;;;;;;;;;;5044302;28;19935;-61
2022/07/25 10:08:01;;;;;;;;;;;;;;;;;;5054307;28;19924;-61
2022/07/25 10:10:27;;;;;;;;;;;;;;;;;;5032402;28;20207;-61
2022/07/25 10:12:53;;;;;;;;;;;;;;;;;;5033806;28;19913;-61
2022/07/25 10:15:19;;;;;;;;;;;;;;;;;;5035144;28;20517;-61
2022/07/25 10:17:45;;;;;;;;;;;;;;;;;;5032724;28;19921;-61
2022/07/25 10:20:11;;;;;;;;;;;;;;;;;;5035614;28;19920;-61
2022/07/25 10:22:37;;;;;;;;;;;;;;;;;;5036612;28;20295;-61
2022/07/25 10:25:02;;;;;;;;;;;;;;;;;;5030458;28;19916;-61
2022/07/25 10:27:28;;;;;;;;;;;;;;;;;;5034966;28;19917;-61
2022/07/25 10:29:54;;;;;;;;;;;;;;;;;;5034585;28;20481;-61
2022/07/25 10:32:20;;;;;;;;;;;;;;;;;;5032091;28;19916;-60
2022/07/25 10:34:46;;;;;;;;;;;;;;;;;;5035216;28;19920;-61
2022/07/25 10:37:12;;;;;;;;;;;;;;;;;;5034109;28;20058;-61
2022/07/25 10:39:38;;;;;;;;;;;;;;;;;;5033095;28;20499;-61
2022/07/25 10:42:04;;;;;;;;;;;;;;;;;;5036722;28;19971;-61
2022/07/25 10:44:30;;;;;;;;;;;;;;;;;;5031935;28;19924;-61
2022/07/25 10:46:56;;;;;;;;;;;;;;;;;;5035935;28;19921;-61
2022/07/25 10:49:24;;;;;;;;;;;;;;;;;;5033147;28;19927;-62
2022/07/25 10:51:49;;;;;;;;;;;;;;;;;;5035388;28;19967;-62
2022/07/25 10:54:15;;;;;;;;;;;;;;;;;;5034163;28;19921;-61
2022/07/25 10:56:41;;;;;;;;;;;;;;;;;;5034470;28;20012;-62
2022/07/25 10:59:07;;;;;;;;;;;;;;;;;;5032845;28;20003;-61
2022/07/25 11:01:35;;;;;;;;;;;;;;;;;;5033156;28;19917;-61
2022/07/25 11:04:01;;;;;;;;;;;;;;;;;;5037186;28;20063;-61
2022/07/25 11:06:27;;;;;;;;;;;;;;;;;;5035054;28;19943;-61
2022/07/25 11:08:56;;;;;;;;;;;;;;;;;;5031504;28;19916;-62
2022/07/25 11:11:22;;;;;;;;;;;;;;;;;;5038064;28;19921;-61
2022/07/25 11:13:49;;;;;;;;;;;;;;;;;;5036455;28;19927;-62
2022/07/25 11:16:14;;;;;;;;;;;;;;;;;;5036338;28;19932;-62
2022/07/25 11:18:41;;;;;;;;;;;;;;;;;;5039289;28;20363;-61
2022/07/25 11:21:07;;;;;;;;;;;;;;;;;;5035418;28;19920;-62
2022/07/25 11:23:32;;;;;;;;;;;;;;;;;;5032938;28;19928;-62
2022/07/25 11:25:58;;;;;;;;;;;;;;;;;;5034277;28;20290;-61
2022/07/25 11:28:28;;;;;;;;;;;;;;;;;;5038209;28;20005;-61
2022/07/25 11:30:54;;;;;;;;;;;;;;;;;;5037303;28;19925;-62
2022/07/25 11:33:20;;;;;;;;;;;;;;;;;;5033156;28;19913;-62
2022/07/25 11:35:46;;;;;;;;;;;;;;;;;;5032546;28;19920;-62
2022/07/25 11:38:12;;;;;;;;;;;;;;;;;;5040928;28;19912;-62
2022/07/25 11:40:37;;;;;;;;;;;;;;;;;;5039017;28;19917;-62
2022/07/25 11:43:03;;;;;;;;;;;;;;;;;;5037855;28;19920;-62
2022/07/25 11:45:29;;;;;;;;;;;;;;;;;;5041405;28;19916;-61
2022/07/25 11:47:55;;;;;;;;;;;;;;;;;;5034478;28;19931;-62
2022/07/25 11:50:21;;;;;;;;;;;;;;;;;;5034408;28;20499;-62
2022/07/25 11:52:47;;;;;;;;;;;;;;;;;;5034799;28;19920;-65
2022/07/25 11:55:13;;;;;;;;;;;;;;;;;;5034995;28;19927;-61
2022/07/25 11:57:39;;;;;;;;;;;;;;;;;;5035591;28;19920;-62
2022/07/25 12:00:06;;;;;;;;;;;;;;;;;;5037892;28;19921;-61
2022/07/25 12:02:31;;;;;;;;;;;;;;;;;;5029957;28;19921;-61
2022/07/25 12:04:57;;;;;;;;;;;;;;;;;;5040295;28;19940;-62
2022/07/25 12:07:23;;;;;;;;;;;;;;;;;;5032222;28;20285;-61
2022/07/25 12:09:49;;;;;;;;;;;;;;;;;;5035163;28;19935;-61
2022/07/25 12:12:15;;;;;;;;;;;;;;;;;;5033569;28;19924;-62
2022/07/25 12:14:41;;;;;;;;;;;;;;;;;;5032801;28;19924;-61
2022/07/25 12:17:07;;;;;;;;;;;;;;;;;;5032950;28;19967;-61
2022/07/25 12:19:33;;;;;;;;;;;;;;;;;;5033521;28;19921;-62
2022/07/25 12:21:58;;;;;;;;;;;;;;;;;;5031384;28;19955;-62
2022/07/25 12:24:24;;;;;;;;;;;;;;;;;;5035678;28;19920;-61
2022/07/25 12:26:50;;;;;;;;;;;;;;;;;;5032870;28;20024;-62
2022/07/25 12:29:16;;;;;;;;;;;;;;;;;;5033299;28;19925;-62
2022/07/25 12:31:42;;;;;;;;;;;;;;;;;;5029953;28;20000;-61
2022/07/25 12:34:08;;;;;;;;;;;;;;;;;;5033248;28;19921;-62
2022/07/25 12:36:39;;;;;;;;;;;;;;;;;;5032889;28;20406;-61
2022/07/25 12:39:05;;;;;;;;;;;;;;;;;;5029706;28;20056;-61
2022/07/25 12:41:31;;;;;;;;;;;;;;;;;;5035267;28;20008;-61
2022/07/25 12:43:59;;;;;;;;;;;;;;;;;;5029213;28;19921;-61
2022/07/25 12:46:25;;;;;;;;;;;;;;;;;;5030570;28;20298;-62
2022/07/25 12:48:51;;;;;;;;;;;;;;;;;;5032525;28;19917;-62
2022/07/25 12:51:16;;;;;;;;;;;;;;;;;;5034206;28;19924;-61
2022/07/25 12:53:42;;;;;;;;;;;;;;;;;;5028871;28;20408;-62
2022/07/25 12:56:08;;;;;;;;;;;;;;;;;;5032619;28;19913;-61
2022/07/25 12:58:34;;;;;;;;;;;;;;;;;;5031211;28;20499;-62
2022/07/25 13:01:00;;;;;;;;;;;;;;;;;;5036640;28;19921;-62
2022/07/25 13:03:26;;;;;;;;;;;;;;;;;;5026187;28;19966;-62
2022/07/25 13:05:52;;;;;;;;;;;;;;;;;;5033559;28;20481;-62
2022/07/25 13:08:18;;;;;;;;;;;;;;;;;;5030657;28;19975;-61
2022/07/25 13:10:43;;;;;;;;;;;;;;;;;;5033494;28;19925;-62
2022/07/25 13:13:09;;;;;;;;;;;;;;;;;;5029005;28;19917;-62
2022/07/25 13:15:35;;;;;;;;;;;;;;;;;;5038730;28;19983;-62
2022/07/25 13:18:01;;;;;;;;;;;;;;;;;;5031620;28;20332;-61
2022/07/25 13:20:28;;;;;;;;;;;;;;;;;;5032121;28;19938;-62
2022/07/25 13:22:54;;;;;;;;;;;;;;;;;;5028511;28;19913;-61
2022/07/25 13:25:20;;;;;;;;;;;;;;;;;;5035042;28;19920;-61
2022/07/25 13:27:46;;;;;;;;;;;;;;;;;;5030442;28;19920;-62
2022/07/25 13:30:13;;;;;;;;;;;;;;;;;;5037912;28;19931;-60
2022/07/25 13:32:39;;;;;;;;;;;;;;;;;;5036158;28;20285;-61
2022/07/25 13:35:04;;;;;;;;;;;;;;;;;;5032632;28;20259;-61
2022/07/25 13:37:30;;;;;;;;;;;;;;;;;;5039765;28;20282;-61
2022/07/25 13:39:56;;;;;;;;;;;;;;;;;;5035019;28;19921;-61
2022/07/25 13:42:22;;;;;;;;;;;;;;;;;;5029685;28;19925;-61
2022/07/25 13:44:48;;;;;;;;;;;;;;;;;;5036821;28;19921;-61
2022/07/25 13:47:14;;;;;;;;;;;;;;;;;;5045840;28;20374;-61
2022/07/25 13:49:40;;;;;;;;;;;;;;;;;;5029716;28;19921;-61
2022/07/25 13:52:06;;;;;;;;;;;;;;;;;;5029345;28;19917;-61
2022/07/25 13:54:31;;;;;;;;;;;;;;;;;;5032218;28;20417;-61
2022/07/25 13:56:57;;;;;;;;;;;;;;;;;;5035539;28;20041;-62
2022/07/25 13:59:23;;;;;;;;;;;;;;;;;;5034031;28;19963;-61
2022/07/25 14:01:49;;;;;;;;;;;;;;;;;;5033058;28;20043;-61
2022/07/25 14:04:15;;;;;;;;;;;;;;;;;;5031731;28;19916;-60
2022/07/25 14:06:41;;;;;;;;;;;;;;;;;;5036369;28;20345;-61
2022/07/25 14:09:07;;;;;;;;;;;;;;;;;;5036289;28;19921;-61
2022/07/25 14:11:33;;;;;;;;;;;;;;;;;;5035892;28;19917;-62
2022/07/25 14:13:59;;;;;;;;;;;;;;;;;;5029574;28;19920;-61
2022/07/25 14:16:25;;;;;;;;;;;;;;;;;;5035300;28;19956;-61
2022/07/25 14:18:51;;;;;;;;;;;;;;;;;;5035412;28;19917;-61
2022/07/25 14:21:17;;;;;;;;;;;;;;;;;;5033053;28;19920;-60
2022/07/25 14:23:43;;;;;;;;;;;;;;;;;;5033718;28;19917;-61
2022/07/25 14:26:09;;;;;;;;;;;;;;;;;;5034862;28;19923;-61
2022/07/25 14:28:35;;;;;;;;;;;;;;;;;;5031546;28;19928;-61
2022/07/25 14:31:00;;;;;;;;;;;;;;;;;;5034653;28;19924;-61
2022/07/25 14:33:26;;;;;;;;;;;;;;;;;;5028488;28;19929;-62
2022/07/25 14:35:52;;;;;;;;;;;;;;;;;;5034482;28;20385;-61
2022/07/25 14:38:18;;;;;;;;;;;;;;;;;;5022406;28;19924;-61
2022/07/25 14:40:44;;;;;;;;;;;;;;;;;;5032061;28;20951;-61
2022/07/25 14:43:10;;;;;;;;;;;;;;;;;;5031756;28;19916;-61
2022/07/25 14:45:36;;;;;;;;;;;;;;;;;;5029933;28;19925;-61
2022/07/25 14:48:02;;;;;;;;;;;;;;;;;;5028926;28;20825;-61
2022/07/25 14:50:27;;;;;;;;;;;;;;;;;;5031939;28;19968;-61
2022/07/25 14:52:53;;;;;;;;;;;;;;;;;;5031310;28;19919;-61
2022/07/25 14:55:21;;;;;;;;;;;;;;;;;;5031483;28;20036;-61
2022/07/25 14:57:46;;;;;;;;;;;;;;;;;;5030104;28;19920;-61
2022/07/25 15:00:12;;;;;;;;;;;;;;;;;;5034457;28;21723;-61
2022/07/25 15:02:38;;;;;;;;;;;;;;;;;;5034156;28;19917;-61
2022/07/25 15:05:04;;;;;;;;;;;;;;;;;;5030774;28;19944;-61
2022/07/25 15:07:30;;;;;;;;;;;;;;;;;;5027198;28;20019;-60
2022/07/25 15:09:56;;;;;;;;;;;;;;;;;;5031476;28;19925;-61
2022/07/25 15:12:22;;;;;;;;;;;;;;;;;;5036556;28;19927;-61
2022/07/25 15:14:47;;;;;;;;;;;;;;;;;;5039210;28;20331;-61
2022/07/25 15:17:13;;;;;;;;;;;;;;;;;;5035540;28;19928;-61
2022/07/25 15:19:39;;;;;;;;;;;;;;;;;;5033215;28;19912;-61
2022/07/25 15:22:05;;;;;;;;;;;;;;;;;;5033076;28;20402;-61
2022/07/25 15:24:31;;;;;;;;;;;;;;;;;;5037071;28;19915;-61
2022/07/25 15:26:57;;;;;;;;;;;;;;;;;;5032396;28;19943;-61
2022/07/25 15:29:23;;;;;;;;;;;;;;;;;;5028952;28;19926;-61
2022/07/25 15:31:48;;;;;;;;;;;;;;;;;;5034981;28;20126;-61
2022/07/25 15:34:14;;;;;;;;;;;;;;;;;;5036237;28;19928;-60
2022/07/25 15:36:40;;;;;;;;;;;;;;;;;;5037314;28;20251;-61
2022/07/25 15:39:06;;;;;;;;;;;;;;;;;;5032576;28;19923;-61
2022/07/25 15:41:32;;;;;;;;;;;;;;;;;;5031254;28;19956;-62
2022/07/25 15:43:58;;;;;;;;;;;;;;;;;;5038441;28;20274;-61
2022/07/25 15:46:25;;;;;;;;;;;;;;;;;;5041995;28;19942;-61
2022/07/25 15:48:51;;;;;;;;;;;;;;;;;;5030644;28;19932;-61
2022/07/25 15:51:17;;;;;;;;;;;;;;;;;;5028771;28;19995;-61
2022/07/25 15:53:42;;;;;;;;;;;;;;;;;;5028059;28;20047;-60
2022/07/25 15:56:09;;;;;;;;;;;;;;;;;;5034956;28;20469;-61
2022/07/25 15:58:35;;;;;;;;;;;;;;;;;;5030938;28;20903;-60
2022/07/25 16:01:01;;;;;;;;;;;;;;;;;;5023677;28;20046;-61
2022/07/25 16:03:27;;;;;;;;;;;;;;;;;;5023711;28;20375;-61
2022/07/25 16:05:55;;;;;;;;;;;;;;;;;;5034556;28;19916;-60
2022/07/25 16:08:21;;;;;;;;;;;;;;;;;;5037260;28;19909;-60
2022/07/25 16:10:47;;;;;;;;;;;;;;;;;;5029912;28;19920;-61
2022/07/25 16:13:12;;;;;;;;;;;;;;;;;;5027075;28;19921;-60
2022/07/25 16:15:38;;;;;;;;;;;;;;;;;;5028081;28;20008;-60
2022/07/25 16:18:04;;;;;;;;;;;;;;;;;;5031575;28;19916;-61
2022/07/25 16:20:30;;;;;;;;;;;;;;;;;;5027316;28;20828;-61
2022/07/25 16:22:57;;;;;;;;;;;;;;;;;;5031929;28;19921;-61
2022/07/25 16:25:23;;;;;;;;;;;;;;;;;;5030683;28;20087;-61
2022/07/25 16:27:49;;;;;;;;;;;;;;;;;;5026039;28;20114;-61
2022/07/25 16:30:15;;;;;;;;;;;;;;;;;;5022012;28;19924;-60
2022/07/25 16:32:41;;;;;;;;;;;;;;;;;;5028920;28;19917;-61
2022/07/25 16:35:07;;;;;;;;;;;;;;;;;;5029185;28;19943;-61
2022/07/25 16:37:33;;;;;;;;;;;;;;;;;;5032539;28;19935;-61
2022/07/25 16:39:59;;;;;;;;;;;;;;;;;;5026961;28;19920;-61